sensor_id;sensor_type;location;lat;lon;timestamp;P1;durP1;ratioP1;P2;durP2;ratioP2
6626;SDS011;3349;49.830;8.748;2023-06-26T00:02:11;7.03;;;6.38;;
6626;SDS011;3349;49.830;8.748;2023-06-26T00:04:38;7.32;;;6.63;;
6626;SDS011;3349;49.830;8.748;2023-06-26T00:07:05;6.72;;;5.88;;
6626;SDS011;3349;49.830;8.748;2023-06-26T00:09:31;7.43;;;6.50;;
6626;SDS011;3349;49.830;8.748;2023-06-26T00:11:59;6.95;;;6.15;;
6626;SDS011;3349;49.830;8.748;2023-06-26T00:14:28;7.07;;;6.47;;
6626;SDS011;3349;49.830;8.748;2023-06-26T00:16:54;6.75;;;6.05;;
6626;SDS011;3349;49.830;8.748;2023-06-26T00:19:21;6.47;;;5.90;;
6626;SDS011;3349;49.830;8.748;2023-06-26T00:21:48;6.68;;;5.78;;
6626;SDS011;3349;49.830;8.748;2023-06-26T00:24:15;6.32;;;5.72;;
6626;SDS011;3349;49.830;8.748;2023-06-26T00:26:42;6.22;;;5.63;;
6626;SDS011;3349;49.830;8.748;2023-06-26T00:29:09;8.85;;;6.40;;
6626;SDS011;3349;49.830;8.748;2023-06-26T00:31:37;6.95;;;6.25;;
6626;SDS011;3349;49.830;8.748;2023-06-26T00:34:05;8.27;;;6.05;;
6626;SDS011;3349;49.830;8.748;2023-06-26T00:36:32;7.70;;;5.65;;
6626;SDS011;3349;49.830;8.748;2023-06-26T00:38:59;6.57;;;5.95;;
6626;SDS011;3349;49.830;8.748;2023-06-26T00:41:26;7.55;;;6.85;;
6626;SDS011;3349;49.830;8.748;2023-06-26T00:43:52;7.20;;;6.22;;
6626;SDS011;3349;49.830;8.748;2023-06-26T00:46:19;6.53;;;5.80;;
6626;SDS011;3349;49.830;8.748;2023-06-26T00:48:48;7.20;;;5.85;;
6626;SDS011;3349;49.830;8.748;2023-06-26T00:51:15;7.07;;;6.45;;
6626;SDS011;3349;49.830;8.748;2023-06-26T00:53:42;6.65;;;5.95;;
6626;SDS011;3349;49.830;8.748;2023-06-26T00:56:09;6.53;;;5.88;;
6626;SDS011;3349;49.830;8.748;2023-06-26T00:58:36;6.97;;;6.18;;
6626;SDS011;3349;49.830;8.748;2023-06-26T01:01:03;6.70;;;6.00;;
6626;SDS011;3349;49.830;8.748;2023-06-26T01:03:33;6.80;;;6.10;;
6626;SDS011;3349;49.830;8.748;2023-06-26T01:06:03;7.03;;;6.30;;
6626;SDS011;3349;49.830;8.748;2023-06-26T01:08:30;7.18;;;6.47;;
6626;SDS011;3349;49.830;8.748;2023-06-26T01:10:57;7.47;;;5.82;;
6626;SDS011;3349;49.830;8.748;2023-06-26T01:13:25;8.60;;;6.43;;
6626;SDS011;3349;49.830;8.748;2023-06-26T01:15:52;7.40;;;6.70;;
6626;SDS011;3349;49.830;8.748;2023-06-26T01:18:19;7.95;;;6.40;;
6626;SDS011;3349;49.830;8.748;2023-06-26T01:20:47;7.22;;;6.53;;
6626;SDS011;3349;49.830;8.748;2023-06-26T01:23:17;7.40;;;6.70;;
6626;SDS011;3349;49.830;8.748;2023-06-26T01:25:53;6.45;;;5.80;;
6626;SDS011;3349;49.830;8.748;2023-06-26T01:28:28;6.63;;;5.95;;
6626;SDS011;3349;49.830;8.748;2023-06-26T01:30:55;6.63;;;5.93;;
6626;SDS011;3349;49.830;8.748;2023-06-26T01:33:23;7.05;;;6.35;;
6626;SDS011;3349;49.830;8.748;2023-06-26T01:35:50;7.55;;;6.57;;
6626;SDS011;3349;49.830;8.748;2023-06-26T01:38:19;7.68;;;6.18;;
6626;SDS011;3349;49.830;8.748;2023-06-26T01:40:48;7.03;;;6.32;;
6626;SDS011;3349;49.830;8.748;2023-06-26T01:43:17;6.93;;;6.22;;
6626;SDS011;3349;49.830;8.748;2023-06-26T01:45:52;6.82;;;6.10;;
6626;SDS011;3349;49.830;8.748;2023-06-26T01:48:23;7.90;;;6.63;;
6626;SDS011;3349;49.830;8.748;2023-06-26T01:50:53;7.05;;;6.35;;
6626;SDS011;3349;49.830;8.748;2023-06-26T01:53:24;8.18;;;6.43;;
6626;SDS011;3349;49.830;8.748;2023-06-26T01:55:55;6.38;;;5.78;;
6626;SDS011;3349;49.830;8.748;2023-06-26T01:58:28;6.68;;;6.00;;
6626;SDS011;3349;49.830;8.748;2023-06-26T02:00:57;7.43;;;6.63;;
6626;SDS011;3349;49.830;8.748;2023-06-26T02:03:23;6.70;;;6.10;;
6626;SDS011;3349;49.830;8.748;2023-06-26T02:05:50;6.53;;;5.93;;
6626;SDS011;3349;49.830;8.748;2023-06-26T02:08:17;6.93;;;6.05;;
6626;SDS011;3349;49.830;8.748;2023-06-26T02:10:44;8.40;;;6.47;;
6626;SDS011;3349;49.830;8.748;2023-06-26T02:13:10;7.25;;;6.35;;
6626;SDS011;3349;49.830;8.748;2023-06-26T02:15:37;7.07;;;6.40;;
6626;SDS011;3349;49.830;8.748;2023-06-26T02:18:07;7.57;;;6.10;;
6626;SDS011;3349;49.830;8.748;2023-06-26T02:20:35;7.32;;;5.80;;
6626;SDS011;3349;49.830;8.748;2023-06-26T02:23:01;8.15;;;6.47;;
6626;SDS011;3349;49.830;8.748;2023-06-26T02:25:28;7.00;;;6.35;;
6626;SDS011;3349;49.830;8.748;2023-06-26T02:27:55;7.97;;;6.30;;
6626;SDS011;3349;49.830;8.748;2023-06-26T02:30:21;7.32;;;6.50;;
6626;SDS011;3349;49.830;8.748;2023-06-26T02:32:48;7.43;;;6.50;;
6626;SDS011;3349;49.830;8.748;2023-06-26T02:35:16;6.75;;;6.05;;
6626;SDS011;3349;49.830;8.748;2023-06-26T02:37:43;9.50;;;6.78;;
6626;SDS011;3349;49.830;8.748;2023-06-26T02:40:09;8.43;;;6.63;;
6626;SDS011;3349;49.830;8.748;2023-06-26T02:42:36;7.35;;;6.60;;
6626;SDS011;3349;49.830;8.748;2023-06-26T02:45:03;6.90;;;6.22;;
6626;SDS011;3349;49.830;8.748;2023-06-26T02:47:30;7.43;;;6.50;;
6626;SDS011;3349;49.830;8.748;2023-06-26T02:49:57;8.05;;;6.00;;
6626;SDS011;3349;49.830;8.748;2023-06-26T02:52:25;7.32;;;6.47;;
6626;SDS011;3349;49.830;8.748;2023-06-26T02:54:53;7.10;;;6.40;;
6626;SDS011;3349;49.830;8.748;2023-06-26T02:57:20;7.03;;;6.35;;
6626;SDS011;3349;49.830;8.748;2023-06-26T02:59:47;6.53;;;5.93;;
6626;SDS011;3349;49.830;8.748;2023-06-26T03:02:13;6.97;;;6.28;;
6626;SDS011;3349;49.830;8.748;2023-06-26T03:04:40;7.43;;;6.65;;
6626;SDS011;3349;49.830;8.748;2023-06-26T03:07:08;7.30;;;6.05;;
6626;SDS011;3349;49.830;8.748;2023-06-26T03:09:36;6.85;;;6.03;;
6626;SDS011;3349;49.830;8.748;2023-06-26T03:12:03;7.25;;;6.50;;
6626;SDS011;3349;49.830;8.748;2023-06-26T03:14:30;8.10;;;6.38;;
6626;SDS011;3349;49.830;8.748;2023-06-26T03:16:57;8.35;;;6.97;;
6626;SDS011;3349;49.830;8.748;2023-06-26T03:19:24;7.13;;;6.05;;
6626;SDS011;3349;49.830;8.748;2023-06-26T03:21:50;6.93;;;6.28;;
6626;SDS011;3349;49.830;8.748;2023-06-26T03:24:17;8.27;;;6.35;;
6626;SDS011;3349;49.830;8.748;2023-06-26T03:26:46;6.70;;;5.95;;
6626;SDS011;3349;49.830;8.748;2023-06-26T03:29:12;7.80;;;7.00;;
6626;SDS011;3349;49.830;8.748;2023-06-26T03:31:39;7.03;;;6.32;;
6626;SDS011;3349;49.830;8.748;2023-06-26T03:34:06;6.50;;;5.90;;
6626;SDS011;3349;49.830;8.748;2023-06-26T03:36:32;8.65;;;6.43;;
6626;SDS011;3349;49.830;8.748;2023-06-26T03:39:00;6.95;;;6.25;;
6626;SDS011;3349;49.830;8.748;2023-06-26T03:41:29;8.95;;;6.45;;
6626;SDS011;3349;49.830;8.748;2023-06-26T03:43:57;7.95;;;5.93;;
6626;SDS011;3349;49.830;8.748;2023-06-26T03:46:25;8.55;;;6.30;;
6626;SDS011;3349;49.830;8.748;2023-06-26T03:48:52;10.13;;;6.57;;
6626;SDS011;3349;49.830;8.748;2023-06-26T03:51:18;8.82;;;6.47;;
6626;SDS011;3349;49.830;8.748;2023-06-26T03:53:45;7.10;;;6.40;;
6626;SDS011;3349;49.830;8.748;2023-06-26T03:56:12;7.05;;;6.35;;
6626;SDS011;3349;49.830;8.748;2023-06-26T03:58:39;6.75;;;6.07;;
6626;SDS011;3349;49.830;8.748;2023-06-26T04:01:07;7.95;;;6.55;;
6626;SDS011;3349;49.830;8.748;2023-06-26T04:03:34;9.55;;;6.65;;
6626;SDS011;3349;49.830;8.748;2023-06-26T04:06:01;7.53;;;6.72;;
6626;SDS011;3349;49.830;8.748;2023-06-26T04:08:27;6.72;;;6.03;;
6626;SDS011;3349;49.830;8.748;2023-06-26T04:10:54;6.97;;;6.22;;
6626;SDS011;3349;49.830;8.748;2023-06-26T04:13:22;7.82;;;6.47;;
6626;SDS011;3349;49.830;8.748;2023-06-26T04:15:49;9.13;;;6.85;;
6626;SDS011;3349;49.830;8.748;2023-06-26T04:18:17;6.80;;;6.15;;
6626;SDS011;3349;49.830;8.748;2023-06-26T04:23:30;8.15;;;6.35;;
6626;SDS011;3349;49.830;8.748;2023-06-26T04:25:56;10.20;;;6.93;;
6626;SDS011;3349;49.830;8.748;2023-06-26T04:28:24;7.38;;;6.68;;
6626;SDS011;3349;49.830;8.748;2023-06-26T04:30:50;10.20;;;6.72;;
6626;SDS011;3349;49.830;8.748;2023-06-26T04:33:20;7.20;;;6.47;;
6626;SDS011;3349;49.830;8.748;2023-06-26T04:35:46;10.32;;;6.68;;
6626;SDS011;3349;49.830;8.748;2023-06-26T04:38:14;8.45;;;6.60;;
6626;SDS011;3349;49.830;8.748;2023-06-26T04:40:41;8.10;;;6.72;;
6626;SDS011;3349;49.830;8.748;2023-06-26T04:43:08;9.57;;;7.43;;
6626;SDS011;3349;49.830;8.748;2023-06-26T04:45:34;7.07;;;6.38;;
6626;SDS011;3349;49.830;8.748;2023-06-26T04:48:02;7.03;;;6.32;;
6626;SDS011;3349;49.830;8.748;2023-06-26T04:50:32;8.88;;;6.38;;
6626;SDS011;3349;49.830;8.748;2023-06-26T04:53:00;8.73;;;6.93;;
6626;SDS011;3349;49.830;8.748;2023-06-26T04:55:27;7.57;;;6.57;;
6626;SDS011;3349;49.830;8.748;2023-06-26T04:57:54;7.75;;;6.45;;
6626;SDS011;3349;49.830;8.748;2023-06-26T05:00:21;8.82;;;7.25;;
6626;SDS011;3349;49.830;8.748;2023-06-26T05:02:50;8.00;;;7.20;;
6626;SDS011;3349;49.830;8.748;2023-06-26T05:05:24;8.45;;;6.20;;
6626;SDS011;3349;49.830;8.748;2023-06-26T05:07:52;8.55;;;7.18;;
6626;SDS011;3349;49.830;8.748;2023-06-26T05:10:20;8.27;;;7.25;;
6626;SDS011;3349;49.830;8.748;2023-06-26T05:12:47;8.05;;;7.25;;
6626;SDS011;3349;49.830;8.748;2023-06-26T05:15:14;8.18;;;7.30;;
6626;SDS011;3349;49.830;8.748;2023-06-26T05:17:40;12.93;;;7.18;;
6626;SDS011;3349;49.830;8.748;2023-06-26T05:20:08;8.35;;;6.70;;
6626;SDS011;3349;49.830;8.748;2023-06-26T05:22:35;9.63;;;7.40;;
6626;SDS011;3349;49.830;8.748;2023-06-26T05:25:06;10.10;;;7.63;;
6626;SDS011;3349;49.830;8.748;2023-06-26T05:27:35;8.23;;;7.43;;
6626;SDS011;3349;49.830;8.748;2023-06-26T05:30:03;8.32;;;7.40;;
6626;SDS011;3349;49.830;8.748;2023-06-26T05:32:30;8.35;;;7.40;;
6626;SDS011;3349;49.830;8.748;2023-06-26T05:35:00;9.15;;;7.25;;
6626;SDS011;3349;49.830;8.748;2023-06-26T05:37:28;7.90;;;7.10;;
6626;SDS011;3349;49.830;8.748;2023-06-26T05:39:56;10.43;;;7.05;;
6626;SDS011;3349;49.830;8.748;2023-06-26T05:42:25;8.75;;;6.90;;
6626;SDS011;3349;49.830;8.748;2023-06-26T05:44:53;8.00;;;7.07;;
6626;SDS011;3349;49.830;8.748;2023-06-26T05:47:19;8.65;;;6.95;;
6626;SDS011;3349;49.830;8.748;2023-06-26T05:49:46;8.35;;;7.30;;
6626;SDS011;3349;49.830;8.748;2023-06-26T05:52:13;9.57;;;7.95;;
6626;SDS011;3349;49.830;8.748;2023-06-26T05:54:40;8.70;;;7.60;;
6626;SDS011;3349;49.830;8.748;2023-06-26T05:57:08;8.93;;;7.05;;
6626;SDS011;3349;49.830;8.748;2023-06-26T05:59:36;10.05;;;6.88;;
6626;SDS011;3349;49.830;8.748;2023-06-26T06:02:05;8.90;;;7.47;;
6626;SDS011;3349;49.830;8.748;2023-06-26T06:04:32;9.18;;;6.68;;
6626;SDS011;3349;49.830;8.748;2023-06-26T06:07:00;8.57;;;7.50;;
6626;SDS011;3349;49.830;8.748;2023-06-26T06:09:26;7.82;;;6.80;;
6626;SDS011;3349;49.830;8.748;2023-06-26T06:11:53;8.15;;;6.93;;
6626;SDS011;3349;49.830;8.748;2023-06-26T06:14:20;7.90;;;7.10;;
6626;SDS011;3349;49.830;8.748;2023-06-26T06:16:48;8.52;;;7.47;;
6626;SDS011;3349;49.830;8.748;2023-06-26T06:19:15;7.50;;;6.78;;
6626;SDS011;3349;49.830;8.748;2023-06-26T06:21:41;8.23;;;7.43;;
6626;SDS011;3349;49.830;8.748;2023-06-26T06:24:08;11.73;;;7.53;;
6626;SDS011;3349;49.830;8.748;2023-06-26T06:26:35;9.35;;;8.25;;
6626;SDS011;3349;49.830;8.748;2023-06-26T06:29:02;8.30;;;7.45;;
6626;SDS011;3349;49.830;8.748;2023-06-26T06:31:29;8.57;;;7.50;;
6626;SDS011;3349;49.830;8.748;2023-06-26T06:33:57;8.82;;;7.78;;
6626;SDS011;3349;49.830;8.748;2023-06-26T06:36:23;8.20;;;7.35;;
6626;SDS011;3349;49.830;8.748;2023-06-26T06:38:50;10.13;;;8.23;;
6626;SDS011;3349;49.830;8.748;2023-06-26T06:41:17;9.07;;;8.02;;
6626;SDS011;3349;49.830;8.748;2023-06-26T06:43:45;9.98;;;8.25;;
6626;SDS011;3349;49.830;8.748;2023-06-26T06:46:12;9.02;;;7.80;;
6626;SDS011;3349;49.830;8.748;2023-06-26T06:48:39;9.77;;;7.68;;
6626;SDS011;3349;49.830;8.748;2023-06-26T06:51:07;12.10;;;7.90;;
6626;SDS011;3349;49.830;8.748;2023-06-26T06:53:34;10.63;;;7.65;;
6626;SDS011;3349;49.830;8.748;2023-06-26T06:56:00;22.50;;;11.25;;
6626;SDS011;3349;49.830;8.748;2023-06-26T06:58:27;10.32;;;8.05;;
6626;SDS011;3349;49.830;8.748;2023-06-26T07:00:56;9.57;;;8.10;;
6626;SDS011;3349;49.830;8.748;2023-06-26T07:03:22;8.57;;;7.70;;
6626;SDS011;3349;49.830;8.748;2023-06-26T07:05:49;9.27;;;7.35;;
6626;SDS011;3349;49.830;8.748;2023-06-26T07:08:17;12.77;;;8.80;;
6626;SDS011;3349;49.830;8.748;2023-06-26T07:10:44;14.73;;;8.57;;
6626;SDS011;3349;49.830;8.748;2023-06-26T07:13:10;9.32;;;8.38;;
6626;SDS011;3349;49.830;8.748;2023-06-26T07:15:37;11.57;;;7.93;;
6626;SDS011;3349;49.830;8.748;2023-06-26T07:18:04;8.30;;;7.50;;
6626;SDS011;3349;49.830;8.748;2023-06-26T07:20:31;12.07;;;7.97;;
6626;SDS011;3349;49.830;8.748;2023-06-26T07:22:57;8.77;;;7.85;;
6626;SDS011;3349;49.830;8.748;2023-06-26T07:25:25;10.18;;;7.55;;
6626;SDS011;3349;49.830;8.748;2023-06-26T07:27:52;8.80;;;7.88;;
6626;SDS011;3349;49.830;8.748;2023-06-26T07:30:19;9.80;;;7.70;;
6626;SDS011;3349;49.830;8.748;2023-06-26T07:32:46;10.55;;;7.72;;
6626;SDS011;3349;49.830;8.748;2023-06-26T07:35:12;9.27;;;8.20;;
6626;SDS011;3349;49.830;8.748;2023-06-26T07:37:39;11.27;;;7.95;;
6626;SDS011;3349;49.830;8.748;2023-06-26T07:40:07;8.88;;;7.97;;
6626;SDS011;3349;49.830;8.748;2023-06-26T07:42:36;9.85;;;8.80;;
6626;SDS011;3349;49.830;8.748;2023-06-26T07:45:02;9.10;;;8.13;;
6626;SDS011;3349;49.830;8.748;2023-06-26T07:47:34;9.35;;;7.90;;
6626;SDS011;3349;49.830;8.748;2023-06-26T07:50:01;11.35;;;8.57;;
6626;SDS011;3349;49.830;8.748;2023-06-26T07:52:28;9.00;;;7.82;;
6626;SDS011;3349;49.830;8.748;2023-06-26T07:54:56;9.43;;;8.45;;
6626;SDS011;3349;49.830;8.748;2023-06-26T07:57:23;9.15;;;8.25;;
6626;SDS011;3349;49.830;8.748;2023-06-26T07:59:51;8.73;;;7.90;;
6626;SDS011;3349;49.830;8.748;2023-06-26T08:02:18;8.82;;;8.02;;
6626;SDS011;3349;49.830;8.748;2023-06-26T08:04:45;8.38;;;7.57;;
6626;SDS011;3349;49.830;8.748;2023-06-26T08:07:13;8.32;;;7.53;;
6626;SDS011;3349;49.830;8.748;2023-06-26T08:09:39;8.82;;;7.93;;
6626;SDS011;3349;49.830;8.748;2023-06-26T08:12:07;10.05;;;7.97;;
6626;SDS011;3349;49.830;8.748;2023-06-26T08:14:33;9.63;;;8.18;;
6626;SDS011;3349;49.830;8.748;2023-06-26T08:17:01;11.07;;;9.30;;
6626;SDS011;3349;49.830;8.748;2023-06-26T08:19:28;10.65;;;7.95;;
6626;SDS011;3349;49.830;8.748;2023-06-26T08:21:55;10.73;;;9.32;;
6626;SDS011;3349;49.830;8.748;2023-06-26T08:24:22;9.27;;;8.38;;
6626;SDS011;3349;49.830;8.748;2023-06-26T08:26:48;9.88;;;8.88;;
6626;SDS011;3349;49.830;8.748;2023-06-26T08:29:15;11.35;;;8.70;;
6626;SDS011;3349;49.830;8.748;2023-06-26T08:31:42;9.55;;;8.65;;
6626;SDS011;3349;49.830;8.748;2023-06-26T08:34:10;9.95;;;8.95;;
6626;SDS011;3349;49.830;8.748;2023-06-26T08:36:37;9.73;;;8.85;;
6626;SDS011;3349;49.830;8.748;2023-06-26T08:39:04;10.30;;;9.10;;
6626;SDS011;3349;49.830;8.748;2023-06-26T08:41:33;10.68;;;9.57;;
6626;SDS011;3349;49.830;8.748;2023-06-26T08:44:01;10.18;;;9.20;;
6626;SDS011;3349;49.830;8.748;2023-06-26T08:46:28;11.85;;;9.63;;
6626;SDS011;3349;49.830;8.748;2023-06-26T08:48:55;10.60;;;9.50;;
6626;SDS011;3349;49.830;8.748;2023-06-26T08:51:25;10.23;;;9.23;;
6626;SDS011;3349;49.830;8.748;2023-06-26T08:53:56;10.75;;;9.68;;
6626;SDS011;3349;49.830;8.748;2023-06-26T08:56:24;10.00;;;9.10;;
6626;SDS011;3349;49.830;8.748;2023-06-26T08:58:53;11.68;;;9.15;;
6626;SDS011;3349;49.830;8.748;2023-06-26T09:01:20;10.52;;;9.52;;
6626;SDS011;3349;49.830;8.748;2023-06-26T09:03:49;9.88;;;8.63;;
6626;SDS011;3349;49.830;8.748;2023-06-26T09:06:16;10.05;;;9.15;;
6626;SDS011;3349;49.830;8.748;2023-06-26T09:08:45;10.20;;;8.93;;
6626;SDS011;3349;49.830;8.748;2023-06-26T09:11:12;9.85;;;8.93;;
6626;SDS011;3349;49.830;8.748;2023-06-26T09:13:39;10.45;;;8.88;;
6626;SDS011;3349;49.830;8.748;2023-06-26T09:16:06;8.98;;;8.10;;
6626;SDS011;3349;49.830;8.748;2023-06-26T09:18:34;11.75;;;8.93;;
6626;SDS011;3349;49.830;8.748;2023-06-26T09:21:04;9.18;;;8.40;;
6626;SDS011;3349;49.830;8.748;2023-06-26T09:23:33;9.07;;;8.27;;
6626;SDS011;3349;49.830;8.748;2023-06-26T09:26:02;9.82;;;9.02;;
6626;SDS011;3349;49.830;8.748;2023-06-26T09:28:30;9.85;;;8.82;;
6626;SDS011;3349;49.830;8.748;2023-06-26T09:31:00;9.82;;;8.93;;
6626;SDS011;3349;49.830;8.748;2023-06-26T09:33:32;10.65;;;9.57;;
6626;SDS011;3349;49.830;8.748;2023-06-26T09:36:00;10.88;;;9.82;;
6626;SDS011;3349;49.830;8.748;2023-06-26T09:38:27;11.10;;;10.15;;
6626;SDS011;3349;49.830;8.748;2023-06-26T09:40:54;11.13;;;9.02;;
6626;SDS011;3349;49.830;8.748;2023-06-26T09:43:22;10.52;;;9.48;;
6626;SDS011;3349;49.830;8.748;2023-06-26T09:45:49;9.40;;;8.60;;
6626;SDS011;3349;49.830;8.748;2023-06-26T09:48:18;9.52;;;8.73;;
6626;SDS011;3349;49.830;8.748;2023-06-26T09:50:45;8.75;;;8.00;;
6626;SDS011;3349;49.830;8.748;2023-06-26T09:53:12;7.82;;;7.22;;
6626;SDS011;3349;49.830;8.748;2023-06-26T09:55:39;9.05;;;8.35;;
6626;SDS011;3349;49.830;8.748;2023-06-26T09:58:08;8.07;;;7.40;;
6626;SDS011;3349;49.830;8.748;2023-06-26T10:00:41;8.60;;;7.90;;
6626;SDS011;3349;49.830;8.748;2023-06-26T10:03:09;9.23;;;8.45;;
6626;SDS011;3349;49.830;8.748;2023-06-26T10:05:37;8.98;;;8.07;;
6626;SDS011;3349;49.830;8.748;2023-06-26T10:08:04;8.82;;;8.02;;
6626;SDS011;3349;49.830;8.748;2023-06-26T10:10:32;9.25;;;8.45;;
6626;SDS011;3349;49.830;8.748;2023-06-26T10:13:02;9.52;;;8.68;;
6626;SDS011;3349;49.830;8.748;2023-06-26T10:15:34;8.93;;;8.13;;
6626;SDS011;3349;49.830;8.748;2023-06-26T10:18:04;9.02;;;8.23;;
6626;SDS011;3349;49.830;8.748;2023-06-26T10:20:31;9.43;;;8.63;;
6626;SDS011;3349;49.830;8.748;2023-06-26T10:23:00;9.45;;;8.73;;
6626;SDS011;3349;49.830;8.748;2023-06-26T10:25:28;9.70;;;8.82;;
6626;SDS011;3349;49.830;8.748;2023-06-26T10:27:58;10.00;;;8.50;;
6626;SDS011;3349;49.830;8.748;2023-06-26T10:30:29;9.75;;;8.80;;
6626;SDS011;3349;49.830;8.748;2023-06-26T10:32:59;8.93;;;8.10;;
6626;SDS011;3349;49.830;8.748;2023-06-26T10:35:28;9.13;;;8.32;;
6626;SDS011;3349;49.830;8.748;2023-06-26T10:37:59;9.35;;;8.45;;
6626;SDS011;3349;49.830;8.748;2023-06-26T10:40:39;8.52;;;7.70;;
6626;SDS011;3349;49.830;8.748;2023-06-26T10:43:08;8.60;;;7.90;;
6626;SDS011;3349;49.830;8.748;2023-06-26T10:45:36;9.32;;;8.32;;
6626;SDS011;3349;49.830;8.748;2023-06-26T10:48:08;8.20;;;7.47;;
6626;SDS011;3349;49.830;8.748;2023-06-26T10:50:37;8.57;;;7.70;;
6626;SDS011;3349;49.830;8.748;2023-06-26T10:53:16;8.73;;;7.93;;
6626;SDS011;3349;49.830;8.748;2023-06-26T10:55:50;8.70;;;8.00;;
6626;SDS011;3349;49.830;8.748;2023-06-26T10:58:29;8.52;;;7.70;;
6626;SDS011;3349;49.830;8.748;2023-06-26T11:01:17;9.35;;;8.30;;
6626;SDS011;3349;49.830;8.748;2023-06-26T11:03:45;9.20;;;7.97;;
6626;SDS011;3349;49.830;8.748;2023-06-26T11:06:17;8.27;;;7.57;;
6626;SDS011;3349;49.830;8.748;2023-06-26T11:08:45;8.90;;;8.20;;
6626;SDS011;3349;49.830;8.748;2023-06-26T11:11:13;9.90;;;8.43;;
6626;SDS011;3349;49.830;8.748;2023-06-26T11:13:40;8.85;;;7.70;;
6626;SDS011;3349;49.830;8.748;2023-06-26T11:16:07;8.98;;;8.20;;
6626;SDS011;3349;49.830;8.748;2023-06-26T11:18:34;8.20;;;7.57;;
6626;SDS011;3349;49.830;8.748;2023-06-26T11:21:04;8.60;;;7.90;;
6626;SDS011;3349;49.830;8.748;2023-06-26T11:23:33;8.52;;;7.82;;
6626;SDS011;3349;49.830;8.748;2023-06-26T11:26:14;8.75;;;7.95;;
6626;SDS011;3349;49.830;8.748;2023-06-26T11:28:48;8.48;;;7.78;;
6626;SDS011;3349;49.830;8.748;2023-06-26T11:31:24;9.07;;;7.57;;
6626;SDS011;3349;49.830;8.748;2023-06-26T11:33:53;8.30;;;7.63;;
6626;SDS011;3349;49.830;8.748;2023-06-26T11:36:22;9.05;;;8.05;;
6626;SDS011;3349;49.830;8.748;2023-06-26T11:38:53;8.45;;;7.68;;
6626;SDS011;3349;49.830;8.748;2023-06-26T11:41:21;8.60;;;7.90;;
6626;SDS011;3349;49.830;8.748;2023-06-26T11:43:48;7.97;;;7.28;;
6626;SDS011;3349;49.830;8.748;2023-06-26T11:46:16;8.40;;;7.70;;
6626;SDS011;3349;49.830;8.748;2023-06-26T11:48:43;9.40;;;7.30;;
6626;SDS011;3349;49.830;8.748;2023-06-26T11:51:12;8.10;;;7.30;;
6626;SDS011;3349;49.830;8.748;2023-06-26T11:53:39;12.65;;;8.00;;
6626;SDS011;3349;49.830;8.748;2023-06-26T11:56:08;8.50;;;7.80;;
6626;SDS011;3349;49.830;8.748;2023-06-26T11:58:36;7.93;;;7.22;;
6626;SDS011;3349;49.830;8.748;2023-06-26T12:01:18;8.45;;;7.38;;
6626;SDS011;3349;49.830;8.748;2023-06-26T12:03:46;8.00;;;7.30;;
6626;SDS011;3349;49.830;8.748;2023-06-26T12:06:13;8.43;;;7.53;;
6626;SDS011;3349;49.830;8.748;2023-06-26T12:08:40;8.45;;;6.97;;
6626;SDS011;3349;49.830;8.748;2023-06-26T12:11:08;9.25;;;6.85;;
6626;SDS011;3349;49.830;8.748;2023-06-26T12:13:36;7.53;;;6.82;;
6626;SDS011;3349;49.830;8.748;2023-06-26T12:16:03;9.82;;;7.10;;
6626;SDS011;3349;49.830;8.748;2023-06-26T12:18:32;7.20;;;6.60;;
6626;SDS011;3349;49.830;8.748;2023-06-26T12:21:00;7.75;;;7.05;;
6626;SDS011;3349;49.830;8.748;2023-06-26T12:23:31;7.70;;;6.93;;
6626;SDS011;3349;49.830;8.748;2023-06-26T12:25:59;10.13;;;7.15;;
6626;SDS011;3349;49.830;8.748;2023-06-26T12:28:44;8.05;;;7.35;;
6626;SDS011;3349;49.830;8.748;2023-06-26T12:31:13;8.20;;;7.40;;
6626;SDS011;3349;49.830;8.748;2023-06-26T12:33:42;7.45;;;6.72;;
6626;SDS011;3349;49.830;8.748;2023-06-26T12:36:10;7.90;;;6.82;;
6626;SDS011;3349;49.830;8.748;2023-06-26T12:38:37;9.95;;;6.90;;
6626;SDS011;3349;49.830;8.748;2023-06-26T12:41:04;7.88;;;7.18;;
6626;SDS011;3349;49.830;8.748;2023-06-26T12:43:32;7.90;;;7.20;;
6626;SDS011;3349;49.830;8.748;2023-06-26T12:46:04;7.75;;;6.90;;
6626;SDS011;3349;49.830;8.748;2023-06-26T12:48:38;7.70;;;7.03;;
6626;SDS011;3349;49.830;8.748;2023-06-26T12:51:12;9.10;;;8.20;;
6626;SDS011;3349;49.830;8.748;2023-06-26T12:53:39;8.95;;;8.13;;
6626;SDS011;3349;49.830;8.748;2023-06-26T12:56:06;9.07;;;8.27;;
6626;SDS011;3349;49.830;8.748;2023-06-26T12:58:34;10.40;;;9.30;;
6626;SDS011;3349;49.830;8.748;2023-06-26T13:01:02;10.23;;;9.32;;
6626;SDS011;3349;49.830;8.748;2023-06-26T13:03:30;10.82;;;9.73;;
6626;SDS011;3349;49.830;8.748;2023-06-26T13:05:57;9.98;;;8.98;;
6626;SDS011;3349;49.830;8.748;2023-06-26T13:08:23;11.00;;;8.95;;
6626;SDS011;3349;49.830;8.748;2023-06-26T13:10:50;11.85;;;9.18;;
6626;SDS011;3349;49.830;8.748;2023-06-26T13:13:17;11.13;;;9.82;;
6626;SDS011;3349;49.830;8.748;2023-06-26T13:15:45;10.88;;;9.80;;
6626;SDS011;3349;49.830;8.748;2023-06-26T13:18:11;11.55;;;9.40;;
6626;SDS011;3349;49.830;8.748;2023-06-26T13:20:38;12.43;;;9.52;;
6626;SDS011;3349;49.830;8.748;2023-06-26T13:23:05;10.15;;;9.02;;
6626;SDS011;3349;49.830;8.748;2023-06-26T13:25:32;9.93;;;8.85;;
6626;SDS011;3349;49.830;8.748;2023-06-26T13:27:59;8.82;;;8.00;;
6626;SDS011;3349;49.830;8.748;2023-06-26T13:30:26;13.95;;;8.40;;
6626;SDS011;3349;49.830;8.748;2023-06-26T13:32:54;8.77;;;7.95;;
6626;SDS011;3349;49.830;8.748;2023-06-26T13:35:21;7.75;;;7.10;;
6626;SDS011;3349;49.830;8.748;2023-06-26T13:37:48;7.82;;;7.10;;
6626;SDS011;3349;49.830;8.748;2023-06-26T13:40:15;7.93;;;6.63;;
6626;SDS011;3349;49.830;8.748;2023-06-26T13:42:42;7.00;;;6.30;;
6626;SDS011;3349;49.830;8.748;2023-06-26T13:45:09;10.18;;;6.47;;
6626;SDS011;3349;49.830;8.748;2023-06-26T13:47:36;8.38;;;6.20;;
6626;SDS011;3349;49.830;8.748;2023-06-26T13:50:09;7.50;;;6.47;;
6626;SDS011;3349;49.830;8.748;2023-06-26T13:52:36;9.13;;;6.28;;
6626;SDS011;3349;49.830;8.748;2023-06-26T13:55:03;11.27;;;5.80;;
6626;SDS011;3349;49.830;8.748;2023-06-26T13:57:31;8.80;;;5.32;;
6626;SDS011;3349;49.830;8.748;2023-06-26T13:59:58;6.82;;;5.70;;
6626;SDS011;3349;49.830;8.748;2023-06-26T14:02:25;6.10;;;5.50;;
6626;SDS011;3349;49.830;8.748;2023-06-26T14:04:52;16.33;;;5.82;;
6626;SDS011;3349;49.830;8.748;2023-06-26T14:07:20;5.85;;;5.25;;
6626;SDS011;3349;49.830;8.748;2023-06-26T14:09:47;6.68;;;5.80;;
6626;SDS011;3349;49.830;8.748;2023-06-26T14:12:13;6.93;;;5.57;;
6626;SDS011;3349;49.830;8.748;2023-06-26T14:14:40;11.35;;;7.25;;
6626;SDS011;3349;49.830;8.748;2023-06-26T14:17:07;8.55;;;6.65;;
6626;SDS011;3349;49.830;8.748;2023-06-26T14:19:35;11.07;;;6.30;;
6626;SDS011;3349;49.830;8.748;2023-06-26T14:22:02;6.68;;;5.20;;
6626;SDS011;3349;49.830;8.748;2023-06-26T14:24:31;5.70;;;4.10;;
6626;SDS011;3349;49.830;8.748;2023-06-26T14:26:57;7.32;;;4.40;;
6626;SDS011;3349;49.830;8.748;2023-06-26T14:29:24;5.93;;;3.85;;
6626;SDS011;3349;49.830;8.748;2023-06-26T14:31:51;5.72;;;3.97;;
6626;SDS011;3349;49.830;8.748;2023-06-26T14:34:17;4.20;;;3.80;;
6626;SDS011;3349;49.830;8.748;2023-06-26T14:36:44;4.63;;;4.13;;
6626;SDS011;3349;49.830;8.748;2023-06-26T14:39:11;4.13;;;3.72;;
6626;SDS011;3349;49.830;8.748;2023-06-26T14:41:39;6.05;;;4.10;;
6626;SDS011;3349;49.830;8.748;2023-06-26T14:44:06;5.65;;;4.45;;
6626;SDS011;3349;49.830;8.748;2023-06-26T14:46:34;8.65;;;5.40;;
6626;SDS011;3349;49.830;8.748;2023-06-26T14:49:01;5.72;;;4.00;;
6626;SDS011;3349;49.830;8.748;2023-06-26T14:51:28;5.55;;;4.00;;
6626;SDS011;3349;49.830;8.748;2023-06-26T14:53:55;3.90;;;3.50;;
6626;SDS011;3349;49.830;8.748;2023-06-26T14:56:22;4.07;;;3.25;;
6626;SDS011;3349;49.830;8.748;2023-06-26T14:58:50;4.05;;;3.28;;
6626;SDS011;3349;49.830;8.748;2023-06-26T15:01:17;4.95;;;3.50;;
6626;SDS011;3349;49.830;8.748;2023-06-26T15:03:44;4.28;;;3.42;;
6626;SDS011;3349;49.830;8.748;2023-06-26T15:06:11;3.85;;;3.10;;
6626;SDS011;3349;49.830;8.748;2023-06-26T15:08:38;3.78;;;3.13;;
6626;SDS011;3349;49.830;8.748;2023-06-26T15:11:04;4.63;;;3.40;;
6626;SDS011;3349;49.830;8.748;2023-06-26T15:13:31;4.25;;;3.35;;
6626;SDS011;3349;49.830;8.748;2023-06-26T15:15:59;3.50;;;3.00;;
6626;SDS011;3349;49.830;8.748;2023-06-26T15:18:26;4.88;;;3.45;;
6626;SDS011;3349;49.830;8.748;2023-06-26T15:20:52;4.10;;;3.53;;